Isla Nueva, Argentina
Current Conditions -  °F | °C
As of 4:00 PM on Thursday 27 Nov 2014 (Local Time) from SAWH Reporting Station
Broken Clouds Broken Clouds  
Wind Chill: 12°   Ceiling: 4000
Heat Index: 12°   Visibility: 6mi
Dew Point:   Wind: 23mph
Humidity: 54%   Direction: 360°N
Pressure: 29.35"   Gusts: 37mph
Location:  55.25°S, 66.49°W
Report Text: SAWH 271900Z 36020G32KT 9999 BKN040 SCT100 12/03 Q0994
Loading
Personal Weather Stations






























Interactive Weather Map New forecast layout! Learn more

10-Day Weather Forecast

Advertisements
Track Severe Weather on mobile